Time;durP1;ratioP1;P1;durP2;ratioP2;P2;SDS_P1;SDS_P2;PMS_P1;PMS_P2;Temp;Humidity;BMP_temperature;BMP_pressure;BME280_temperature;BME280_humidity;BME280_pressure;Samples;Min_cycle;Max_cycle;Signal;HPM_P1;HPM_P2
2023/09/06 00:01:16;;;;;;;6.60;4.82;;;19.90;99.90;;;;;;5075522;28;20036;-57
2023/09/06 00:03:42;;;;;;;5.28;4.78;;;19.90;99.90;;;;;;5058696;28;20049;-56
2023/09/06 00:06:08;;;;;;;6.47;4.95;;;19.90;99.90;;;;;;5060108;28;20048;-56
2023/09/06 00:08:34;;;;;;;5.63;5.00;;;19.80;99.90;;;;;;5070102;28;20105;-56
2023/09/06 00:11:06;;;;;;;8.80;5.07;;;19.80;99.90;;;;;;5069128;28;20051;-57
2023/09/06 00:13:35;;;;;;;7.70;5.45;;;19.80;99.90;;;;;;5070708;28;20090;-57
2023/09/06 00:16:01;;;;;;;7.30;5.57;;;19.70;99.90;;;;;;5059530;28;20048;-57
2023/09/06 00:18:27;;;;;;;11.88;6.50;;;19.70;99.90;;;;;;5053729;28;20033;-57
2023/09/06 00:20:54;;;;;;;9.45;5.50;;;19.70;99.90;;;;;;5047594;28;20041;-57
2023/09/06 00:23:20;;;;;;;6.72;5.57;;;19.70;99.90;;;;;;5047885;28;20036;-57
2023/09/06 00:25:46;;;;;;;6.05;5.45;;;19.70;99.90;;;;;;5046074;28;20076;-56
2023/09/06 00:28:13;;;;;;;9.23;5.85;;;19.70;99.90;;;;;;5046973;28;20041;-57
2023/09/06 00:30:39;;;;;;;8.00;6.43;;;19.70;99.90;;;;;;5050008;28;20072;-57
2023/09/06 00:33:06;;;;;;;6.38;5.75;;;19.60;99.90;;;;;;5046859;28;20052;-57
2023/09/06 00:35:33;;;;;;;8.25;5.70;;;19.50;99.90;;;;;;5048471;28;20056;-57
2023/09/06 00:38:05;;;;;;;10.02;6.03;;;19.50;99.90;;;;;;5045959;28;21506;-57
2023/09/06 00:40:39;;;;;;;9.57;6.50;;;19.50;99.90;;;;;;5048601;28;20071;-57
2023/09/06 00:43:06;;;;;;;6.05;5.45;;;19.50;99.90;;;;;;5049082;28;21516;-57
2023/09/06 00:45:46;;;;;;;6.78;5.55;;;19.40;99.90;;;;;;5046618;28;20037;-56
2023/09/06 00:48:22;;;;;;;7.80;6.32;;;19.40;99.90;;;;;;5047391;28;20094;-56
2023/09/06 00:50:52;;;;;;;9.90;6.40;;;19.40;99.90;;;;;;5062196;28;20412;-56
2023/09/06 00:53:20;;;;;;;8.05;6.40;;;19.30;99.90;;;;;;5069420;28;20045;-56
2023/09/06 00:55:48;;;;;;;9.15;6.70;;;19.30;99.90;;;;;;5069796;28;20052;-56
2023/09/06 00:58:15;;;;;;;8.13;6.40;;;19.30;99.90;;;;;;5081324;28;20044;-57
2023/09/06 01:00:43;;;;;;;6.80;6.07;;;19.30;99.90;;;;;;5065234;28;20148;-57
2023/09/06 01:03:08;;;;;;;9.30;5.85;;;19.20;99.90;;;;;;5073254;28;20052;-57
2023/09/06 01:05:58;;;;;;;7.38;6.10;;;19.20;99.90;;;;;;5064184;28;20033;-57
2023/09/06 01:08:37;;;;;;;9.88;6.18;;;19.20;99.90;;;;;;5076701;28;20106;-57
2023/09/06 01:11:19;;;;;;;7.72;6.55;;;19.20;99.90;;;;;;5067803;28;20056;-57
2023/09/06 01:13:52;;;;;;;8.57;6.43;;;19.00;99.90;;;;;;5082045;28;20067;-57
2023/09/06 01:16:30;;;;;;;7.40;6.03;;;19.10;99.90;;;;;;5080255;28;20036;-57
2023/09/06 01:18:56;;;;;;;7.15;6.45;;;19.10;99.90;;;;;;5065255;28;20053;-58
2023/09/06 01:21:27;;;;;;;6.95;5.90;;;19.10;99.90;;;;;;5080054;28;20079;-55
2023/09/06 01:23:54;;;;;;;7.13;6.18;;;19.00;99.90;;;;;;5083280;28;20473;-57
2023/09/06 01:26:20;;;;;;;10.43;6.72;;;19.00;99.90;;;;;;5079932;28;20044;-61
2023/09/06 01:28:49;;;;;;;7.07;6.32;;;19.00;99.90;;;;;;5062800;28;20079;-56
2023/09/06 01:31:15;;;;;;;7.05;5.95;;;19.00;99.90;;;;;;5067524;28;20044;-56
2023/09/06 01:33:41;;;;;;;10.60;6.25;;;18.90;99.90;;;;;;5071543;28;20100;-56
2023/09/06 01:36:07;;;;;;;8.90;6.25;;;18.90;99.90;;;;;;5069587;28;20098;-56
2023/09/06 01:38:32;;;;;;;9.10;6.40;;;18.90;99.90;;;;;;5083144;28;20044;-55
2023/09/06 01:40:59;;;;;;;7.57;6.35;;;18.90;99.90;;;;;;5081238;28;20704;-57
2023/09/06 01:43:25;;;;;;;10.50;6.97;;;18.90;99.90;;;;;;5076472;28;20037;-56
2023/09/06 01:45:51;;;;;;;7.63;6.28;;;18.90;99.90;;;;;;5072245;28;20437;-56
2023/09/06 01:48:20;;;;;;;8.30;6.90;;;18.90;99.90;;;;;;5063152;28;20045;-56
2023/09/06 01:50:47;;;;;;;8.90;7.20;;;18.80;99.90;;;;;;5069019;28;20055;-55
2023/09/06 01:53:15;;;;;;;8.35;6.88;;;18.80;99.90;;;;;;5063126;28;20047;-56
2023/09/06 01:55:42;;;;;;;8.77;6.32;;;18.80;99.90;;;;;;5062927;28;20049;-55
2023/09/06 01:58:12;;;;;;;8.70;6.68;;;18.80;99.90;;;;;;5062388;28;20044;-56
2023/09/06 02:00:38;;;;;;;8.73;6.35;;;18.70;99.90;;;;;;5062606;28;20040;-56
2023/09/06 02:03:06;;;;;;;8.02;6.68;;;18.80;99.90;;;;;;5066605;28;20096;-56
2023/09/06 02:05:32;;;;;;;7.97;6.25;;;18.70;99.90;;;;;;5082923;28;20485;-56
2023/09/06 02:07:58;;;;;;;8.80;6.22;;;18.60;99.90;;;;;;5080472;28;20044;-57
2023/09/06 02:10:24;;;;;;;7.50;6.57;;;18.60;99.90;;;;;;5071714;28;20405;-55
2023/09/06 02:12:51;;;;;;;6.75;6.05;;;18.60;99.90;;;;;;5081071;28;20045;-56
2023/09/06 02:15:16;;;;;;;7.60;6.25;;;18.60;99.90;;;;;;5076833;28;20040;-58
2023/09/06 02:17:44;;;;;;;8.23;6.25;;;18.60;99.90;;;;;;5079462;28;20125;-56
2023/09/06 02:20:20;;;;;;;6.63;5.53;;;18.60;99.90;;;;;;5069863;28;20124;-56
2023/09/06 02:22:55;;;;;;;7.95;5.93;;;18.60;99.90;;;;;;5062894;28;20064;-56
2023/09/06 02:25:33;;;;;;;11.50;6.38;;;18.60;99.90;;;;;;5075181;28;20109;-55
2023/09/06 02:28:05;;;;;;;7.90;6.10;;;18.50;99.90;;;;;;5080496;28;20101;-56
2023/09/06 02:30:32;;;;;;;6.65;5.93;;;18.50;99.90;;;;;;5081518;28;20053;-56
2023/09/06 02:32:57;;;;;;;8.95;6.10;;;18.50;99.90;;;;;;5072680;28;20075;-57
2023/09/06 02:35:23;;;;;;;8.32;6.40;;;18.50;99.90;;;;;;5062202;28;20077;-56
2023/09/06 02:37:49;;;;;;;8.38;6.40;;;18.40;99.90;;;;;;5061408;28;20048;-56
2023/09/06 02:40:18;;;;;;;8.00;6.20;;;18.40;99.90;;;;;;5062202;28;20045;-56
2023/09/06 02:42:44;;;;;;;8.13;6.68;;;18.40;99.90;;;;;;5077507;28;20041;-56
2023/09/06 02:45:11;;;;;;;14.52;6.70;;;18.40;99.90;;;;;;5081447;28;20071;-56
2023/09/06 02:47:47;;;;;;;7.03;6.32;;;18.30;99.90;;;;;;5074963;28;20049;-56
2023/09/06 02:50:14;;;;;;;8.60;6.57;;;18.30;99.90;;;;;;5060470;28;20040;-56
2023/09/06 02:52:44;;;;;;;7.63;5.88;;;18.30;99.90;;;;;;5060736;28;20429;-56
2023/09/06 02:55:13;;;;;;;8.82;6.40;;;18.30;99.90;;;;;;5073840;28;20044;-56
2023/09/06 02:57:43;;;;;;;7.28;5.95;;;18.30;99.90;;;;;;5081529;28;20068;-56
2023/09/06 03:00:25;;;;;;;7.18;6.07;;;18.20;99.90;;;;;;5062376;28;20041;-56
2023/09/06 03:02:54;;;;;;;8.43;6.80;;;18.20;99.90;;;;;;5061911;28;20037;-57
2023/09/06 03:05:20;;;;;;;10.55;6.65;;;18.20;99.90;;;;;;5062826;28;20036;-57
2023/09/06 03:07:49;;;;;;;8.88;6.55;;;18.10;99.90;;;;;;5068975;28;20048;-57
2023/09/06 03:10:19;;;;;;;8.30;6.20;;;18.10;99.90;;;;;;5079977;28;20066;-56
2023/09/06 03:12:47;;;;;;;7.75;6.00;;;18.00;99.90;;;;;;5075997;28;20045;-57
2023/09/06 03:15:13;;;;;;;7.28;5.93;;;18.00;99.90;;;;;;5077027;28;20053;-58
2023/09/06 03:17:39;;;;;;;8.00;7.20;;;18.00;99.90;;;;;;5061661;28;20037;-57
2023/09/06 03:20:19;;;;;;;7.75;6.30;;;18.00;99.90;;;;;;5059312;28;20037;-57
2023/09/06 03:22:50;;;;;;;8.07;6.10;;;18.00;99.90;;;;;;5061611;28;20047;-56
2023/09/06 03:25:16;;;;;;;7.72;6.60;;;17.90;99.90;;;;;;5062175;28;20041;-56
2023/09/06 03:27:42;;;;;;;8.73;6.72;;;17.90;99.90;;;;;;5080772;28;20044;-55
2023/09/06 03:30:09;;;;;;;8.38;7.20;;;17.90;99.90;;;;;;5063906;28;20053;-56
2023/09/06 03:32:35;;;;;;;7.70;6.40;;;17.80;99.90;;;;;;5066691;28;20040;-56
2023/09/06 03:35:04;;;;;;;10.45;6.93;;;17.80;99.90;;;;;;5079536;28;20191;-56
2023/09/06 03:37:30;;;;;;;9.23;7.15;;;17.80;99.90;;;;;;5074530;28;20087;-57
2023/09/06 03:39:56;;;;;;;8.18;6.68;;;17.70;99.90;;;;;;5074179;28;20041;-56
2023/09/06 03:42:23;;;;;;;8.27;6.90;;;17.70;99.90;;;;;;5070690;28;20033;-56
2023/09/06 03:44:49;;;;;;;7.97;6.85;;;17.70;99.90;;;;;;5080162;28;20052;-56
2023/09/06 03:47:16;;;;;;;10.68;6.85;;;17.70;99.90;;;;;;5080763;28;20119;-56
2023/09/06 03:49:43;;;;;;;8.00;6.82;;;17.70;99.90;;;;;;5072209;28;20060;-56
2023/09/06 03:52:15;;;;;;;8.88;7.25;;;17.70;99.90;;;;;;5061052;28;20069;-56
2023/09/06 03:54:41;;;;;;;9.90;6.60;;;17.70;99.90;;;;;;5060198;28;20037;-55
2023/09/06 03:57:13;;;;;;;8.30;7.07;;;17.60;99.90;;;;;;5080343;28;20051;-56
2023/09/06 03:59:40;;;;;;;9.25;7.18;;;17.60;99.90;;;;;;5072557;28;20071;-56
2023/09/06 04:02:13;;;;;;;9.25;6.90;;;17.50;99.90;;;;;;5063692;28;20087;-56
2023/09/06 04:04:39;;;;;;;7.25;6.55;;;17.50;99.90;;;;;;5073290;28;20041;-56
2023/09/06 04:07:07;;;;;;;11.55;6.93;;;17.50;99.90;;;;;;5066091;28;20100;-56
2023/09/06 04:09:37;;;;;;;10.52;6.40;;;17.50;99.90;;;;;;5080909;28;20072;-57
2023/09/06 04:12:05;;;;;;;8.68;7.13;;;17.50;99.90;;;;;;5069677;28;20123;-56
2023/09/06 04:14:35;;;;;;;7.72;6.93;;;17.40;99.90;;;;;;5063357;28;20048;-56
2023/09/06 04:17:01;;;;;;;8.27;6.75;;;17.30;99.90;;;;;;5059811;28;20108;-55
2023/09/06 04:19:27;;;;;;;8.25;7.28;;;17.40;99.90;;;;;;5069699;28;20043;-56
2023/09/06 04:21:53;;;;;;;10.38;6.53;;;17.40;99.90;;;;;;5066317;28;20041;-56
2023/09/06 04:24:20;;;;;;;9.32;7.25;;;17.30;99.90;;;;;;5072995;28;20046;-56
2023/09/06 04:26:46;;;;;;;11.50;7.25;;;17.30;99.90;;;;;;5079975;28;20546;-56
2023/09/06 04:29:11;;;;;;;8.57;6.88;;;17.30;99.90;;;;;;5074001;28;20036;-56
2023/09/06 04:31:41;;;;;;;8.82;6.80;;;17.30;99.90;;;;;;5067631;28;20053;-55
2023/09/06 04:34:07;;;;;;;8.88;7.53;;;17.20;99.90;;;;;;5061793;28;20060;-56
2023/09/06 04:36:36;;;;;;;9.73;7.60;;;17.20;99.90;;;;;;5075316;28;20037;-56
2023/09/06 04:39:03;;;;;;;10.45;6.60;;;17.20;99.90;;;;;;5061116;28;20041;-55
2023/09/06 04:41:31;;;;;;;10.45;7.15;;;17.20;99.90;;;;;;5064301;28;20045;-56
2023/09/06 04:43:57;;;;;;;8.00;7.07;;;17.20;99.90;;;;;;5065594;28;20052;-56
2023/09/06 04:46:22;;;;;;;9.27;7.15;;;17.10;99.90;;;;;;5070178;28;20087;-56
2023/09/06 04:48:48;;;;;;;8.88;7.40;;;17.10;99.90;;;;;;5061285;28;20083;-56
2023/09/06 04:51:14;;;;;;;11.07;7.47;;;17.10;99.90;;;;;;5059096;28;20059;-56
2023/09/06 04:53:40;;;;;;;10.63;7.93;;;17.10;99.90;;;;;;5064797;28;20032;-58
2023/09/06 04:56:06;;;;;;;9.38;7.85;;;17.10;99.90;;;;;;5066511;28;20090;-56
2023/09/06 04:58:33;;;;;;;10.05;7.30;;;17.10;99.90;;;;;;5061992;28;20151;-57
2023/09/06 05:01:06;;;;;;;9.18;7.32;;;17.00;99.90;;;;;;5077180;28;20474;-57
2023/09/06 05:03:32;;;;;;;11.65;7.57;;;17.00;99.90;;;;;;5064867;28;20041;-58
2023/09/06 05:05:58;;;;;;;8.40;7.60;;;17.00;99.90;;;;;;5065946;28;20109;-57
2023/09/06 05:08:24;;;;;;;8.48;7.13;;;16.90;99.90;;;;;;5061463;28;20036;-56
2023/09/06 05:10:51;;;;;;;9.48;7.03;;;16.90;99.90;;;;;;5074758;28;20048;-57
2023/09/06 05:13:18;;;;;;;10.27;7.55;;;16.90;99.90;;;;;;5066579;28;20040;-55
2023/09/06 05:15:44;;;;;;;8.63;7.65;;;16.90;99.90;;;;;;5078529;28;20079;-56
2023/09/06 05:18:10;;;;;;;10.10;8.18;;;16.90;99.90;;;;;;5073931;28;20037;-58
2023/09/06 05:20:38;;;;;;;13.35;7.78;;;16.80;99.90;;;;;;5078438;28;20045;-57
2023/09/06 05:23:10;;;;;;;9.00;7.75;;;16.80;99.90;;;;;;5079331;28;20335;-56
2023/09/06 05:25:36;;;;;;;13.25;8.75;;;16.80;99.90;;;;;;5059497;28;20070;-54
2023/09/06 05:28:04;;;;;;;9.45;8.18;;;16.80;99.90;;;;;;5056712;28;20041;-56
2023/09/06 05:30:34;;;;;;;13.02;7.47;;;16.80;99.90;;;;;;5058966;28;20163;-56
2023/09/06 05:32:59;;;;;;;8.82;7.65;;;16.80;99.90;;;;;;5060245;28;20094;-57
2023/09/06 05:35:26;;;;;;;9.15;8.00;;;16.80;99.90;;;;;;5059211;28;20072;-56
2023/09/06 05:37:52;;;;;;;10.73;7.75;;;16.80;99.90;;;;;;5060532;28;20045;-56
2023/09/06 05:40:22;;;;;;;9.10;7.72;;;16.80;99.90;;;;;;5072491;28;20076;-56
2023/09/06 05:42:49;;;;;;;11.10;7.13;;;16.80;99.90;;;;;;5068894;28;20105;-58
2023/09/06 05:45:15;;;;;;;11.48;7.60;;;16.80;99.90;;;;;;5068005;28;20041;-57
2023/09/06 05:47:41;;;;;;;9.13;6.93;;;16.80;99.90;;;;;;5069523;28;20040;-57
2023/09/06 05:50:07;;;;;;;12.07;7.57;;;16.80;99.90;;;;;;5078927;28;20049;-57
2023/09/06 05:52:33;;;;;;;8.32;7.32;;;16.90;99.90;;;;;;5062854;28;20040;-56
2023/09/06 05:54:59;;;;;;;11.30;8.05;;;16.90;99.90;;;;;;5077687;28;20048;-57
2023/09/06 05:57:28;;;;;;;14.13;7.63;;;16.90;99.90;;;;;;5083104;28;20094;-57
2023/09/06 05:59:53;;;;;;;9.30;7.57;;;17.00;99.90;;;;;;5079377;28;20036;-56
2023/09/06 06:02:19;;;;;;;9.00;8.00;;;17.00;99.90;;;;;;5066822;28;20044;-57
2023/09/06 06:04:45;;;;;;;11.13;7.75;;;17.10;99.90;;;;;;5065437;28;20049;-56
2023/09/06 06:07:13;;;;;;;12.43;7.75;;;17.20;99.90;;;;;;5078990;28;20047;-56
2023/09/06 06:09:40;;;;;;;10.98;8.27;;;17.30;99.90;;;;;;5069038;28;20032;-56
2023/09/06 06:12:06;;;;;;;10.05;7.65;;;17.30;99.90;;;;;;5073318;28;20083;-56
2023/09/06 06:14:31;;;;;;;15.70;8.27;;;17.30;99.90;;;;;;5062357;28;20068;-57
2023/09/06 06:16:57;;;;;;;10.77;8.00;;;17.40;99.90;;;;;;5071368;28;20543;-56
2023/09/06 06:19:23;;;;;;;10.00;8.20;;;17.40;99.90;;;;;;5075115;28;20037;-56
2023/09/06 06:21:50;;;;;;;11.10;8.38;;;17.50;99.90;;;;;;5061990;28;20043;-57
2023/09/06 06:24:16;;;;;;;9.88;7.68;;;17.50;99.90;;;;;;5061111;28;20041;-57
2023/09/06 06:26:41;;;;;;;10.57;8.45;;;17.50;99.90;;;;;;5062566;28;20048;-57
2023/09/06 06:29:07;;;;;;;8.93;7.68;;;17.60;99.90;;;;;;5061352;28;20044;-56
2023/09/06 06:31:33;;;;;;;10.18;7.75;;;17.70;99.90;;;;;;5064304;28;20084;-57
2023/09/06 06:33:59;;;;;;;10.50;8.30;;;17.70;99.90;;;;;;5061229;28;20057;-56
2023/09/06 06:36:25;;;;;;;8.98;7.10;;;17.80;99.90;;;;;;5064473;28;20521;-54
2023/09/06 06:38:51;;;;;;;8.60;7.70;;;17.80;99.90;;;;;;5043645;28;20420;-56
2023/09/06 06:41:22;;;;;;;8.68;7.78;;;17.90;99.90;;;;;;5061450;28;20033;-57
2023/09/06 06:43:49;;;;;;;10.95;7.97;;;17.90;99.90;;;;;;5064313;28;20040;-57
2023/09/06 06:46:32;;;;;;;9.02;7.93;;;18.00;99.90;;;;;;5075133;28;20126;-57
2023/09/06 06:48:59;;;;;;;8.98;7.70;;;18.10;99.90;;;;;;5066080;28;20141;-58
2023/09/06 06:51:26;;;;;;;10.43;7.65;;;18.20;99.90;;;;;;5066704;28;20103;-58
2023/09/06 06:53:52;;;;;;;8.98;6.90;;;18.20;99.90;;;;;;5070264;28;20037;-58
2023/09/06 06:56:21;;;;;;;12.00;6.72;;;18.40;99.90;;;;;;5062680;28;20040;-58
2023/09/06 06:58:50;;;;;;;8.07;7.10;;;18.40;99.90;;;;;;5065442;28;20119;-59
2023/09/06 07:01:16;;;;;;;10.05;6.95;;;18.50;99.90;;;;;;5067873;28;20098;-56
2023/09/06 07:03:42;;;;;;;8.30;6.65;;;18.60;99.90;;;;;;5068620;28;20090;-56
2023/09/06 07:06:08;;;;;;;10.43;6.18;;;18.80;99.90;;;;;;5069542;28;20067;-58
2023/09/06 07:08:38;;;;;;;8.95;6.50;;;19.20;99.90;;;;;;5063573;28;20075;-58
2023/09/06 07:11:04;;;;;;;7.60;6.40;;;19.60;99.90;;;;;;5073905;28;20052;-58
2023/09/06 07:13:31;;;;;;;9.10;6.40;;;19.90;99.90;;;;;;5073107;28;20028;-58
2023/09/06 07:15:56;;;;;;;8.13;6.25;;;20.30;99.90;;;;;;5066123;28;20104;-57
2023/09/06 07:18:23;;;;;;;7.80;5.90;;;20.60;99.90;;;;;;5061749;28;20401;-59
2023/09/06 07:20:49;;;;;;;9.02;6.05;;;20.80;99.90;;;;;;5066018;28;20029;-59
2023/09/06 07:23:15;;;;;;;9.43;6.40;;;21.00;99.90;;;;;;5072382;28;20055;-58
2023/09/06 07:25:47;;;;;;;8.27;5.72;;;21.20;99.90;;;;;;5067015;28;20053;-58
2023/09/06 07:28:15;;;;;;;7.95;5.43;;;21.50;99.90;;;;;;5067641;28;20052;-58
2023/09/06 07:30:42;;;;;;;7.68;5.22;;;21.60;99.90;;;;;;5067632;28;20057;-58
2023/09/06 07:33:08;;;;;;;9.25;5.97;;;21.70;99.90;;;;;;5060345;28;20198;-59
2023/09/06 07:35:34;;;;;;;7.50;6.10;;;22.00;99.90;;;;;;5067293;28;20080;-58
2023/09/06 07:38:00;;;;;;;6.28;5.32;;;22.10;99.90;;;;;;5063789;28;20064;-58
2023/09/06 07:40:26;;;;;;;7.55;5.40;;;22.20;99.90;;;;;;5062980;28;20058;-59
2023/09/06 07:42:52;;;;;;;8.20;4.72;;;22.40;99.90;;;;;;5071971;28;20044;-58
2023/09/06 07:45:18;;;;;;;6.47;5.40;;;22.50;99.90;;;;;;5066750;28;20044;-58
2023/09/06 07:47:44;;;;;;;9.07;5.60;;;22.40;99.90;;;;;;5071123;28;20043;-59
2023/09/06 07:50:10;;;;;;;7.75;5.45;;;22.40;99.90;;;;;;5074792;28;20098;-59
2023/09/06 07:52:37;;;;;;;7.00;5.47;;;22.40;99.90;;;;;;5062629;28;20310;-58
2023/09/06 07:55:07;;;;;;;8.95;5.55;;;22.30;99.90;;;;;;5060403;28;20040;-59
2023/09/06 07:57:33;;;;;;;6.32;5.00;;;22.30;99.90;;;;;;5065803;28;20036;-58
2023/09/06 07:59:59;;;;;;;6.32;4.60;;;22.20;99.90;;;;;;5077678;28;20052;-59
2023/09/06 08:02:25;;;;;;;6.72;4.70;;;22.20;99.90;;;;;;5065715;28;20032;-58
2023/09/06 08:04:50;;;;;;;8.35;5.00;;;22.10;99.90;;;;;;5070321;28;20041;-58
2023/09/06 08:07:17;;;;;;;5.72;4.35;;;22.00;99.90;;;;;;5061066;28;20041;-60
2023/09/06 08:09:43;;;;;;;6.30;4.45;;;22.00;99.90;;;;;;5059027;28;20043;-57
2023/09/06 08:12:09;;;;;;;7.80;4.63;;;22.00;99.90;;;;;;5056476;28;20068;-58
2023/09/06 08:14:35;;;;;;;8.45;4.75;;;22.00;99.90;;;;;;5067645;28;20041;-59
2023/09/06 08:17:01;;;;;;;6.53;3.90;;;22.00;99.90;;;;;;5061304;28;20044;-59
2023/09/06 08:19:27;;;;;;;9.05;5.35;;;22.10;99.90;;;;;;5071905;28;20045;-58
2023/09/06 08:21:53;;;;;;;7.13;4.57;;;22.20;99.90;;;;;;5063645;28;20105;-59
2023/09/06 08:24:18;;;;;;;6.57;4.82;;;22.10;99.90;;;;;;5068069;28;20128;-57
2023/09/06 08:26:48;;;;;;;5.60;4.18;;;22.10;99.90;;;;;;5067231;28;20037;-58
2023/09/06 08:29:13;;;;;;;10.27;4.22;;;22.00;99.90;;;;;;5060790;28;20063;-58
2023/09/06 08:31:39;;;;;;;12.45;4.68;;;22.00;99.90;;;;;;5067220;28;20049;-58
2023/09/06 08:34:05;;;;;;;6.40;4.10;;;22.00;99.90;;;;;;5060874;28;20123;-58
2023/09/06 08:36:31;;;;;;;5.70;3.83;;;22.00;99.90;;;;;;5062839;28;20037;-58
2023/09/06 08:38:57;;;;;;;9.98;4.38;;;21.90;99.90;;;;;;5059494;28;20044;-59
2023/09/06 08:41:26;;;;;;;8.23;3.83;;;21.90;99.90;;;;;;5061088;28;20045;-58
2023/09/06 08:43:52;;;;;;;4.80;3.58;;;22.00;99.90;;;;;;5063809;28;20029;-59
2023/09/06 08:46:21;;;;;;;8.82;4.05;;;22.00;99.90;;;;;;5055193;28;20041;-59
2023/09/06 08:48:48;;;;;;;11.20;4.40;;;22.10;99.90;;;;;;5063304;28;20070;-58
2023/09/06 08:51:15;;;;;;;8.20;4.45;;;22.10;99.90;;;;;;5064591;28;20076;-57
2023/09/06 08:53:43;;;;;;;6.70;4.43;;;22.30;99.90;;;;;;5067507;28;20071;-59
2023/09/06 08:56:10;;;;;;;7.95;3.80;;;22.30;99.90;;;;;;5059310;28;20440;-57
2023/09/06 08:58:35;;;;;;;4.45;3.42;;;22.40;99.90;;;;;;5059010;28;20394;-58
2023/09/06 09:01:04;;;;;;;8.27;3.80;;;22.40;99.90;;;;;;5063411;28;20114;-56
2023/09/06 09:03:31;;;;;;;7.65;3.50;;;22.40;99.90;;;;;;5060555;28;20048;-59
2023/09/06 09:06:00;;;;;;;5.03;3.63;;;22.50;99.90;;;;;;5063937;28;20047;-58
2023/09/06 09:08:30;;;;;;;6.18;3.67;;;22.50;99.90;;;;;;5058188;28;20055;-58
2023/09/06 09:11:15;;;;;;;8.52;4.30;;;22.50;99.90;;;;;;5059457;28;20072;-58
2023/09/06 09:13:42;;;;;;;6.10;3.63;;;22.60;99.90;;;;;;5063859;28;20040;-59
2023/09/06 09:16:08;;;;;;;4.88;3.30;;;22.60;99.90;;;;;;5060044;28;20048;-59
2023/09/06 09:18:36;;;;;;;5.85;4.15;;;22.60;99.90;;;;;;5064022;28;20041;-58
2023/09/06 09:21:03;;;;;;;4.78;3.55;;;22.60;99.90;;;;;;5059395;28;20095;-58
2023/09/06 09:23:40;;;;;;;8.07;3.80;;;22.70;99.90;;;;;;5070268;28;20048;-58
2023/09/06 09:26:08;;;;;;;7.05;3.60;;;22.70;99.90;;;;;;5059647;28;20036;-58
2023/09/06 09:28:35;;;;;;;7.10;3.97;;;22.80;99.90;;;;;;5062864;28;20033;-58
2023/09/06 09:31:02;;;;;;;5.25;3.15;;;22.90;99.90;;;;;;5063863;28;20666;-58
2023/09/06 09:33:29;;;;;;;5.90;3.90;;;23.00;99.90;;;;;;5069228;28;20029;-58
2023/09/06 09:35:56;;;;;;;7.90;4.32;;;23.10;99.90;;;;;;5077997;28;20528;-58
2023/09/06 09:38:21;;;;;;;6.80;3.65;;;23.20;99.90;;;;;;5077270;28;20515;-57
2023/09/06 09:41:05;;;;;;;5.82;3.92;;;23.30;99.90;;;;;;5060758;28;20037;-58
2023/09/06 09:43:31;;;;;;;5.30;3.53;;;23.40;99.90;;;;;;5065511;28;20051;-59
2023/09/06 09:45:57;;;;;;;10.10;3.70;;;23.40;99.90;;;;;;5062912;28;20072;-58
2023/09/06 09:48:28;;;;;;;8.07;3.95;;;23.40;99.90;;;;;;5069520;28;20044;-58
2023/09/06 09:50:55;;;;;;;5.70;4.03;;;23.40;99.90;;;;;;5063494;28;20465;-58
2023/09/06 09:53:24;;;;;;;5.07;3.50;;;23.50;99.90;;;;;;5072503;28;20044;-58
2023/09/06 09:55:55;;;;;;;6.57;4.10;;;23.60;99.90;;;;;;5067581;28;20048;-59
2023/09/06 09:58:22;;;;;;;7.13;3.75;;;23.60;99.90;;;;;;5073047;28;20048;-57
2023/09/06 10:00:52;;;;;;;5.45;3.88;;;23.60;99.90;;;;;;5076695;28;20048;-60
2023/09/06 10:03:18;;;;;;;8.38;4.00;;;23.60;99.90;;;;;;5068319;28;20076;-58
2023/09/06 10:05:46;;;;;;;9.00;4.38;;;23.70;99.90;;;;;;5068160;28;20561;-59
2023/09/06 10:08:13;;;;;;;7.35;4.00;;;23.70;99.90;;;;;;5062803;28;20055;-58
2023/09/06 10:10:40;;;;;;;8.35;3.70;;;23.80;99.90;;;;;;5060419;28;20032;-59
2023/09/06 10:13:08;;;;;;;6.78;4.07;;;23.80;99.90;;;;;;5074956;28;20036;-60
2023/09/06 10:15:35;;;;;;;8.63;3.70;;;23.90;99.90;;;;;;5063521;28;20767;-59
2023/09/06 10:18:03;;;;;;;4.65;3.10;;;23.90;99.90;;;;;;5059084;28;20097;-60
2023/09/06 10:20:32;;;;;;;5.88;4.10;;;23.90;99.90;;;;;;5066643;28;20051;-59
2023/09/06 10:22:59;;;;;;;4.95;3.60;;;24.00;99.90;;;;;;5069125;28;20128;-57
2023/09/06 10:25:26;;;;;;;5.93;3.60;;;24.00;99.90;;;;;;5061905;28;20048;-60
2023/09/06 10:27:53;;;;;;;6.75;4.00;;;24.00;99.90;;;;;;5066570;28;20424;-58
2023/09/06 10:30:51;;;;;;;6.68;3.75;;;24.10;99.90;;;;;;5073242;28;20108;-59
2023/09/06 10:33:35;;;;;;;8.45;4.18;;;24.20;99.90;;;;;;5063896;28;20052;-58
2023/09/06 10:36:12;;;;;;;4.72;3.00;;;24.20;99.90;;;;;;5059226;28;20064;-59
2023/09/06 10:38:54;;;;;;;6.65;3.35;;;24.30;99.90;;;;;;5064610;28;20052;-59
2023/09/06 10:41:21;;;;;;;7.43;3.60;;;24.30;99.90;;;;;;5068593;28;20049;-59
2023/09/06 10:44:02;;;;;;;4.13;3.20;;;24.30;99.90;;;;;;5077513;28;20614;-59
2023/09/06 10:46:33;;;;;;;7.70;3.47;;;24.40;99.90;;;;;;5075221;28;20059;-59
2023/09/06 10:49:19;;;;;;;5.95;2.90;;;24.50;99.90;;;;;;5063666;28;20051;-59
2023/09/06 10:52:08;;;;;;;5.20;3.22;;;24.60;99.90;;;;;;5066048;28;20052;-59
2023/09/06 10:54:38;;;;;;;7.40;3.65;;;24.70;99.90;;;;;;5061297;28;20045;-59
2023/09/06 10:57:10;;;;;;;4.25;3.10;;;24.70;99.90;;;;;;5058496;28;20048;-58
2023/09/06 10:59:54;;;;;;;8.10;3.15;;;24.80;99.90;;;;;;5065946;28;20501;-59
2023/09/06 11:02:23;;;;;;;5.25;3.17;;;24.80;99.90;;;;;;5063014;28;20060;-56
2023/09/06 11:05:02;;;;;;;5.47;3.33;;;24.90;99.90;;;;;;5067248;28;20037;-60
2023/09/06 11:07:43;;;;;;;6.28;3.28;;;25.00;99.90;;;;;;5061345;28;20037;-59
2023/09/06 11:10:09;;;;;;;5.07;3.22;;;25.00;99.90;;;;;;5069212;28;20049;-59
2023/09/06 11:12:36;;;;;;;5.00;3.13;;;25.00;99.90;;;;;;5070550;28;20063;-59
2023/09/06 11:15:01;;;;;;;5.10;2.92;;;25.10;99.90;;;;;;5061096;28;20048;-59
2023/09/06 11:17:27;;;;;;;6.38;3.40;;;25.10;99.90;;;;;;5064784;28;20040;-58
2023/09/06 11:19:53;;;;;;;4.05;3.10;;;25.10;99.90;;;;;;5067963;28;20067;-58
2023/09/06 11:22:19;;;;;;;6.75;3.25;;;25.10;99.90;;;;;;5060747;28;20037;-58
2023/09/06 11:24:45;;;;;;;6.90;3.20;;;25.10;99.90;;;;;;5042222;28;20108;-57
2023/09/06 11:27:21;;;;;;;5.38;2.75;;;25.20;99.90;;;;;;5061399;28;20060;-58
2023/09/06 11:29:57;;;;;;;;;;;25.20;99.90;;;;;;5061846;28;20049;-57
2023/09/06 11:32:23;;;;;;;5.90;3.45;;;25.30;99.90;;;;;;5065761;28;19921;-57
2023/09/06 11:34:49;;;;;;;15.57;4.88;;;25.30;99.90;;;;;;5067443;28;20124;-58
2023/09/06 11:37:17;;;;;;;5.80;3.22;;;25.30;99.90;;;;;;5063498;28;20090;-58
2023/09/06 11:39:45;;;;;;;4.00;3.08;;;25.40;99.90;;;;;;5061210;28;20040;-58
2023/09/06 11:42:16;;;;;;;5.07;3.47;;;25.50;99.90;;;;;;5071281;28;20048;-59
2023/09/06 11:44:47;;;;;;;4.03;2.75;;;25.50;99.90;;;;;;5060854;28;20044;-59
2023/09/06 11:47:20;;;;;;;4.43;3.20;;;25.60;99.90;;;;;;5063107;28;20048;-59
2023/09/06 11:49:47;;;;;;;4.28;3.00;;;25.80;99.90;;;;;;5061540;28;20045;-59
2023/09/06 11:52:18;;;;;;;6.47;3.10;;;25.70;99.90;;;;;;5063625;28;20117;-59
2023/09/06 11:54:49;;;;;;;4.95;2.97;;;25.70;99.90;;;;;;5060175;28;20041;-59
2023/09/06 11:57:30;;;;;;;4.05;2.90;;;25.70;99.90;;;;;;5063136;28;20453;-59
2023/09/06 12:00:00;;;;;;;3.70;2.80;;;25.80;99.90;;;;;;5062418;28;20139;-58
2023/09/06 12:02:34;;;;;;;6.22;3.03;;;25.80;99.90;;;;;;5060078;28;20047;-59
2023/09/06 12:05:03;;;;;;;4.90;2.80;;;25.80;99.90;;;;;;5059718;28;20393;-60
2023/09/06 12:07:31;;;;;;;5.63;3.15;;;25.80;99.90;;;;;;5064278;28;20076;-59
2023/09/06 12:09:58;;;;;;;4.55;2.90;;;25.80;99.90;;;;;;5067082;28;20075;-59
2023/09/06 12:12:27;;;;;;;5.78;2.35;;;25.80;99.90;;;;;;5068807;28;20133;-59
2023/09/06 12:14:53;;;;;;;3.33;2.50;;;25.90;99.90;;;;;;5074891;28;20084;-59
2023/09/06 12:17:19;;;;;;;3.53;2.40;;;26.00;99.90;;;;;;5063449;28;20040;-60
2023/09/06 12:19:45;;;;;;;4.28;2.50;;;26.00;99.90;;;;;;5071418;28;20100;-59
2023/09/06 12:22:17;;;;;;;3.83;2.40;;;26.10;99.90;;;;;;5064038;28;20056;-59
2023/09/06 12:24:46;;;;;;;4.07;2.53;;;26.10;99.90;;;;;;5061788;28;20045;-59
2023/09/06 12:27:20;;;;;;;3.42;2.40;;;26.10;99.90;;;;;;5067995;28;20035;-59
2023/09/06 12:29:46;;;;;;;3.67;2.70;;;26.20;99.90;;;;;;5067246;28;20100;-59
2023/09/06 12:32:11;;;;;;;3.55;2.35;;;26.30;99.90;;;;;;5066101;28;20050;-59
2023/09/06 12:34:37;;;;;;;2.45;2.10;;;26.30;99.90;;;;;;5068857;28;20040;-60
2023/09/06 12:37:03;;;;;;;3.30;2.40;;;26.40;99.90;;;;;;5070646;28;20041;-59
2023/09/06 12:39:28;;;;;;;4.63;2.25;;;26.50;99.90;;;;;;5064887;28;20494;-59
2023/09/06 12:41:55;;;;;;;19.13;3.63;;;26.50;99.90;;;;;;5058223;28;20049;-59
2023/09/06 12:44:21;;;;;;;3.10;2.30;;;26.60;99.90;;;;;;5066971;28;20036;-59
2023/09/06 12:46:47;;;;;;;4.28;2.35;;;26.70;99.90;;;;;;5071826;28;20055;-59
2023/09/06 12:49:13;;;;;;;4.70;2.70;;;26.80;99.90;;;;;;5065489;28;20037;-59
2023/09/06 12:51:39;;;;;;;3.83;2.45;;;26.90;99.90;;;;;;5064145;28;20044;-58